Time;durP1;ratioP1;P1;durP2;ratioP2;P2;SDS_P1;SDS_P2;PMS_P1;PMS_P2;Temp;Humidity;BMP_temperature;BMP_pressure;BME280_temperature;BME280_humidity;BME280_pressure;Samples;Min_cycle;Max_cycle;Signal;HPM_P1;HPM_P2
2022/03/19 00:02:05;;;;;;;;;34.50;30.00;;;;;21.91;36.78;103593.42;110890;1256;18936;-48
2022/03/19 00:04:32;;;;;;;;;32.00;28.50;;;;;21.93;36.82;103593.48;110844;1255;22756;-49
2022/03/19 00:06:59;;;;;;;;;38.33;31.33;;;;;21.92;36.72;103590.27;110838;1255;19287;-51
2022/03/19 00:09:26;;;;;;;;;34.00;30.00;;;;;21.92;36.77;103590.82;110839;1255;22032;-48
2022/03/19 00:11:54;;;;;;;;;35.00;31.67;;;;;21.92;36.87;103588.31;110930;1255;22003;-50
2022/03/19 00:14:22;;;;;;;;;31.00;29.00;;;;;21.91;36.92;103582.58;110838;1255;18771;-48
2022/03/19 00:16:50;;;;;;;;;31.33;27.00;;;;;21.92;36.79;103590.64;110782;1255;18818;-50
2022/03/19 00:19:17;;;;;;;;;30.67;29.33;;;;;21.91;36.78;103589.60;110894;1255;22229;-50
2022/03/19 00:21:45;;;;;;;;;30.50;29.50;;;;;21.91;36.98;103588.54;110907;1255;18908;-49
2022/03/19 00:24:12;;;;;;;;;32.67;30.33;;;;;21.92;36.72;103589.38;110910;1255;20310;-47
2022/03/19 00:26:39;;;;;;;;;34.00;28.33;;;;;21.92;36.77;103590.79;110934;1255;19472;-49
2022/03/19 00:29:06;;;;;;;;;32.33;29.00;;;;;21.92;36.88;103587.00;110904;1255;18688;-49
2022/03/19 00:31:33;;;;;;;;;33.67;29.67;;;;;21.93;36.78;103583.84;110910;1255;20367;-48
2022/03/19 00:34:01;;;;;;;;;34.00;31.33;;;;;21.91;36.91;103578.33;110832;1255;19543;-48
2022/03/19 00:36:28;;;;;;;;;36.33;31.00;;;;;21.91;36.85;103576.86;110884;1255;19035;-48
2022/03/19 00:38:56;;;;;;;;;34.00;31.00;;;;;21.90;36.93;103574.63;110804;1255;18770;-49
2022/03/19 00:41:23;;;;;;;;;31.00;29.00;;;;;21.90;36.92;103576.95;110892;1255;21471;-49
2022/03/19 00:43:51;;;;;;;;;31.00;29.00;;;;;21.91;36.93;103570.13;110892;1255;18946;-48
2022/03/19 00:46:19;;;;;;;;;32.67;29.00;;;;;21.93;36.82;103574.19;110884;1255;18994;-49
2022/03/19 00:48:46;;;;;;;;;28.67;26.67;;;;;21.92;36.74;103575.55;110867;1255;19610;-48
2022/03/19 00:51:14;;;;;;;;;31.50;29.50;;;;;21.90;37.03;103577.33;110923;1255;18785;-48
2022/03/19 00:53:41;;;;;;;;;34.50;30.00;;;;;21.89;36.79;103577.27;110825;1258;19182;-48
2022/03/19 00:56:08;;;;;;;;;33.67;31.33;;;;;21.89;36.94;103571.97;110878;1255;19587;-48
2022/03/19 00:58:36;;;;;;;;;36.67;34.00;;;;;21.88;37.04;103573.27;110891;1255;18850;-48
2022/03/19 01:01:03;;;;;;;;;31.00;29.00;;;;;21.88;36.91;103571.48;110868;1255;18974;-49
2022/03/19 01:03:30;;;;;;;;;34.00;32.00;;;;;21.87;36.98;103571.15;110776;1255;19537;-48
2022/03/19 01:05:57;;;;;;;;;30.00;29.00;;;;;21.89;36.98;103575.00;110817;1255;18698;-48
2022/03/19 01:08:25;;;;;;;;;31.00;26.67;;;;;21.89;36.83;103574.30;110833;1255;18903;-48
2022/03/19 01:10:52;;;;;;;;;30.00;29.00;;;;;21.87;36.78;103570.77;110880;1255;19521;-49
2022/03/19 01:13:19;;;;;;;;;34.00;33.00;;;;;21.88;37.02;103573.85;110726;1257;19243;-49
2022/03/19 01:15:47;;;;;;;;;31.00;29.33;;;;;21.87;36.87;103572.42;110908;1255;18989;-50
2022/03/19 01:18:14;;;;;;;;;34.00;30.50;;;;;21.87;36.88;103569.34;110801;1258;22290;-48
2022/03/19 01:20:42;;;;;;;;;34.67;30.67;;;;;21.88;36.71;103571.86;110770;1255;173075;-49
2022/03/19 01:23:09;;;;;;;;;35.00;31.50;;;;;21.87;36.93;103570.98;110887;1256;18867;-49
2022/03/19 01:25:36;;;;;;;;;27.67;27.00;;;;;21.87;36.84;103569.48;110811;1255;19524;-50
2022/03/19 01:28:03;;;;;;;;;30.00;26.33;;;;;21.88;36.70;103567.66;110854;1255;22257;-50
2022/03/19 01:30:30;;;;;;;;;34.00;30.00;;;;;21.87;36.95;103564.75;110868;1255;18886;-49
2022/03/19 01:32:58;;;;;;;;;34.00;28.67;;;;;21.87;36.90;103559.86;110732;1258;19529;-48
2022/03/19 01:35:25;;;;;;;;;34.00;31.00;;;;;21.87;36.79;103556.41;110867;1255;18822;-47
2022/03/19 01:37:52;;;;;;;;;33.67;30.33;;;;;21.89;36.91;103551.77;110881;1255;22714;-47
2022/03/19 01:40:19;;;;;;;;;37.50;30.50;;;;;21.86;36.90;103545.77;110817;1256;19508;-50
2022/03/19 01:42:46;;;;;;;;;32.67;30.00;;;;;21.87;36.79;103544.57;110904;1255;18859;-48
2022/03/19 01:45:14;;;;;;;;;33.33;29.67;;;;;21.89;36.91;103549.73;110896;1255;19136;-49
2022/03/19 01:47:41;;;;;;;;;30.00;28.33;;;;;21.87;36.81;103546.58;110808;1257;19842;-49
2022/03/19 01:50:08;;;;;;;;;30.00;28.00;;;;;21.87;36.92;103544.22;110752;1257;19369;-49
2022/03/19 01:52:36;;;;;;;;;31.33;26.67;;;;;21.89;36.87;103549.58;110885;1255;19087;-49
2022/03/19 01:55:03;;;;;;;;;35.00;33.00;;;;;21.89;36.82;103555.95;110909;1255;21991;-48
2022/03/19 01:57:30;;;;;;;;;32.50;31.50;;;;;21.86;36.85;103549.73;110758;1258;18731;-50
2022/03/19 01:59:58;;;;;;;;;29.67;28.00;;;;;21.87;36.91;103546.05;110827;1257;18828;-49
2022/03/19 02:02:26;;;;;;;;;33.00;30.00;;;;;21.87;36.82;103547.15;110878;1255;19664;-49
2022/03/19 02:04:53;;;;;;;;;37.33;32.67;;;;;21.87;37.01;103546.80;110912;1255;18840;-49
2022/03/19 02:07:21;;;;;;;;;33.33;30.33;;;;;21.87;36.87;103542.38;110891;1255;18851;-49
2022/03/19 02:09:48;;;;;;;;;36.33;33.33;;;;;21.88;36.85;103542.35;110803;1255;19643;-48
2022/03/19 02:12:16;;;;;;;;;30.33;27.33;;;;;21.87;36.94;103541.17;110771;1258;18896;-49
2022/03/19 02:14:44;;;;;;;;;35.33;31.00;;;;;21.87;36.83;103538.55;110922;1255;20308;-49
2022/03/19 02:17:11;;;;;;;;;32.00;31.00;;;;;21.88;36.90;103540.54;110834;1256;22353;-50
2022/03/19 02:19:39;;;;;;;;;33.00;31.00;;;;;21.88;36.72;103541.58;110856;1255;22570;-49
2022/03/19 02:22:06;;;;;;;;;31.00;29.50;;;;;21.87;36.87;103539.64;110880;1255;18777;-48
2022/03/19 02:27:18;;;;;;;;;30.50;28.00;;;;;21.88;36.86;103539.60;110833;1255;19487;-48
2022/03/19 02:29:46;;;;;;;;;32.50;30.00;;;;;21.88;36.87;103542.88;110757;1258;18990;-48
2022/03/19 02:32:13;;;;;;;;;35.67;28.00;;;;;21.88;36.86;103537.63;110732;1257;21049;-49
2022/03/19 02:34:40;;;;;;;;;30.67;29.00;;;;;21.87;36.80;103539.10;110731;1258;18839;-49
2022/03/19 02:37:07;;;;;;;;;33.00;30.00;;;;;21.87;36.85;103538.77;110715;1258;18777;-49
2022/03/19 02:39:35;;;;;;;;;33.50;29.50;;;;;21.87;36.93;103538.58;110700;1258;21013;-49
2022/03/19 02:42:02;;;;;;;;;34.00;31.33;;;;;21.87;36.77;103537.48;110783;1258;18919;-48
2022/03/19 02:44:30;;;;;;;;;38.33;33.00;;;;;21.86;36.80;103536.79;110745;1257;19045;-47
2022/03/19 02:46:57;;;;;;;;;32.67;28.67;;;;;21.86;36.72;103535.55;110834;1255;19612;-49
2022/03/19 02:49:24;;;;;;;;;34.50;30.00;;;;;21.85;37.00;103533.79;110737;1257;18935;-49
2022/03/19 02:51:52;;;;;;;;;34.67;27.67;;;;;21.85;36.83;103532.73;110820;1255;18967;-47
2022/03/19 02:54:19;;;;;;;;;32.67;30.67;;;;;21.84;36.73;103536.96;110833;1256;19507;-48
2022/03/19 02:56:46;;;;;;;;;34.00;31.00;;;;;21.86;36.96;103536.30;110938;1255;19164;-48
2022/03/19 02:59:13;;;;;;;;;34.00;28.67;;;;;21.86;36.84;103543.92;110848;1256;19987;-49
2022/03/19 03:01:41;;;;;;;;;35.00;33.50;;;;;21.85;36.86;103540.00;110742;1258;19446;-49
2022/03/19 03:04:08;;;;;;;;;29.67;28.67;;;;;21.86;36.95;103543.89;110850;1255;18754;-49
2022/03/19 03:06:35;;;;;;;;;27.67;27.00;;;;;21.87;36.77;103548.23;110773;1256;22735;-47
2022/03/19 03:09:02;;;;;;;;;34.00;29.33;;;;;21.87;36.80;103548.40;110968;1255;19339;-47
2022/03/19 03:11:29;;;;;;;;;30.00;29.33;;;;;21.86;36.86;103551.96;110890;1255;21334;-50
2022/03/19 03:13:57;;;;;;;;;32.67;29.67;;;;;21.87;36.76;103556.77;110885;1255;34476;-50
2022/03/19 03:16:24;;;;;;;;;33.67;30.67;;;;;21.87;36.71;103560.60;110857;1255;19657;-49
2022/03/19 03:18:51;;;;;;;;;30.33;26.67;;;;;21.87;36.75;103559.51;110764;1258;19385;-50
2022/03/19 03:21:19;;;;;;;;;30.00;29.00;;;;;21.86;36.76;103565.02;110779;1258;19029;-49
2022/03/19 03:23:47;;;;;;;;;31.33;30.00;;;;;21.86;36.86;103570.15;110962;1255;19578;-49
2022/03/19 03:26:14;;;;;;;;;30.00;26.50;;;;;21.85;36.64;103570.60;110870;1255;22014;-48
2022/03/19 03:28:41;;;;;;;;;31.33;27.00;;;;;21.85;36.69;103568.61;110788;1255;21950;-49
2022/03/19 03:31:09;;;;;;;;;33.67;30.33;;;;;21.85;36.70;103574.42;110790;1255;19517;-49
2022/03/19 03:33:36;;;;;;;;;31.00;26.50;;;;;21.85;36.90;103572.93;110787;1255;18832;-49
2022/03/19 03:36:03;;;;;;;;;35.00;32.50;;;;;21.86;36.79;103572.52;110864;1255;22144;-48
2022/03/19 03:38:30;;;;;;;;;31.67;29.33;;;;;21.87;36.72;103577.00;110704;1258;20993;-51
2022/03/19 03:40:58;;;;;;;;;35.33;28.33;;;;;21.86;36.90;103575.23;110859;1255;18806;-49
2022/03/19 03:43:25;;;;;;;;;32.33;29.00;;;;;21.85;36.84;103578.20;110844;1255;18954;-49
2022/03/19 03:45:52;;;;;;;;;28.67;26.67;;;;;21.86;36.89;103583.09;110796;1258;19765;-49
2022/03/19 03:48:19;;;;;;;;;31.67;27.33;;;;;21.86;36.79;103583.96;110769;1257;18752;-48
2022/03/19 03:50:46;;;;;;;;;31.00;29.00;;;;;21.86;36.77;103585.23;110913;1255;22451;-48
2022/03/19 03:53:14;;;;;;;;;29.33;27.00;;;;;21.85;36.91;103586.81;110841;1255;19800;-49
2022/03/19 03:55:41;;;;;;;;;34.00;30.00;;;;;21.85;36.65;103589.14;110866;1255;19054;-49
2022/03/19 03:58:09;;;;;;;;;32.67;30.33;;;;;21.85;36.80;103588.28;110884;1255;19119;-49
2022/03/19 04:00:36;;;;;;;;;30.00;28.33;;;;;21.84;36.78;103589.25;110887;1255;19481;-49
2022/03/19 04:03:04;;;;;;;;;31.00;30.00;;;;;21.84;36.93;103585.80;110800;1257;18742;-48
2022/03/19 04:05:31;;;;;;;;;33.00;29.67;;;;;21.84;36.71;103583.95;110898;1255;22938;-48
2022/03/19 04:07:58;;;;;;;;;38.67;33.00;;;;;21.85;36.85;103580.98;110862;1255;27480;-48
2022/03/19 04:10:25;;;;;;;;;32.33;28.00;;;;;21.84;36.75;103585.02;110757;1257;18834;-49
2022/03/19 04:12:53;;;;;;;;;32.67;28.67;;;;;21.85;36.72;103586.77;110886;1255;20807;-48
2022/03/19 04:15:20;;;;;;;;;33.67;29.33;;;;;21.85;36.75;103588.40;110904;1255;19462;-48
2022/03/19 04:17:47;;;;;;;;;34.67;31.00;;;;;21.84;36.95;103585.38;110910;1255;20065;-47
2022/03/19 04:20:15;;;;;;;;;32.67;29.33;;;;;21.85;36.83;103591.30;110863;1255;18801;-49
2022/03/19 04:22:42;;;;;;;;;33.00;27.00;;;;;21.85;36.73;103599.20;110707;1257;20083;-49
2022/03/19 04:25:10;;;;;;;;;32.67;29.00;;;;;21.84;36.67;103604.48;110933;1255;18851;-49
2022/03/19 04:27:37;;;;;;;;;30.00;29.50;;;;;21.86;36.86;103601.96;110898;1255;19387;-49
2022/03/19 04:30:05;;;;;;;;;30.00;27.00;;;;;21.85;36.91;103595.73;110961;1255;19743;-49
2022/03/19 04:32:32;;;;;;;;;32.33;29.33;;;;;21.85;36.85;103600.42;110898;1255;23403;-48
2022/03/19 04:36:29;;;;;;;;;34.00;30.33;;;;;21.86;36.84;103598.76;110860;1255;18910;-49
2022/03/19 04:37:46;;;;;;;;;29.67;28.67;;;;;21.85;36.75;103597.52;110869;1255;20790;-50
2022/03/19 04:40:13;;;;;;;;;32.50;29.00;;;;;21.84;36.77;103599.94;110872;1255;18740;-49
2022/03/19 04:42:41;;;;;;;;;32.33;31.00;;;;;21.84;36.81;103596.15;110750;1258;18883;-49
2022/03/19 04:45:08;;;;;;;;;31.00;29.50;;;;;21.85;36.76;103601.16;110936;1255;19470;-49
2022/03/19 04:47:35;;;;;;;;;30.67;29.00;;;;;21.84;36.80;103603.23;110900;1255;22858;-48
2022/03/19 04:50:04;;;;;;;;;36.33;32.00;;;;;21.84;36.83;103603.59;110873;1255;18743;-47
2022/03/19 04:52:31;;;;;;;;;32.00;30.00;;;;;21.86;36.70;103611.86;110921;1255;19825;-48
2022/03/19 04:55:00;;;;;;;;;31.33;29.00;;;;;21.85;36.97;103606.10;110878;1255;18799;-48
2022/03/19 04:57:28;;;;;;;;;28.33;26.33;;;;;21.85;36.80;103608.68;110892;1255;19236;-49
2022/03/19 04:59:55;;;;;;;;;33.00;30.00;;;;;21.85;36.63;103602.95;110941;1255;19792;-48
2022/03/19 05:02:24;;;;;;;;;32.67;28.33;;;;;21.86;36.68;103600.00;110905;1255;18743;-47
2022/03/19 05:04:52;;;;;;;;;34.00;32.50;;;;;21.87;36.67;103607.98;110880;1255;19414;-49
2022/03/19 05:07:20;;;;;;;;;35.00;33.00;;;;;21.84;36.84;103619.98;110867;1255;22345;-48
2022/03/19 05:12:32;;;;;;;;;33.00;29.67;;;;;21.84;36.75;103625.64;110859;1255;19122;-49
2022/03/19 05:14:59;;;;;;;;;34.00;30.00;;;;;21.84;36.75;103629.98;110897;1255;22948;-49
2022/03/19 05:17:27;;;;;;;;;34.00;31.67;;;;;21.83;36.91;103630.45;110844;1255;18680;-48
2022/03/19 05:19:54;;;;;;;;;32.33;29.67;;;;;21.83;36.69;103634.45;110897;1255;18918;-48
2022/03/19 05:22:21;;;;;;;;;33.33;31.00;;;;;21.85;36.87;103638.35;110688;1258;19569;-49
2022/03/19 05:24:48;;;;;;;;;36.00;30.00;;;;;21.86;36.63;103642.98;110836;1255;22839;-49
2022/03/19 05:27:16;;;;;;;;;29.00;28.00;;;;;21.85;36.67;103643.59;110819;1256;19297;-49
2022/03/19 05:29:43;;;;;;;;;32.00;29.33;;;;;21.85;36.75;103648.48;110831;1255;19527;-47
2022/03/19 05:32:11;;;;;;;;;32.67;29.67;;;;;21.86;36.74;103647.89;110833;1255;20206;-48
2022/03/19 05:34:38;;;;;;;;;36.33;33.33;;;;;21.86;36.76;103651.14;110814;1256;18833;-49
2022/03/19 05:37:05;;;;;;;;;34.00;31.33;;;;;21.86;36.69;103645.85;110823;1256;19495;-48
2022/03/19 05:39:33;;;;;;;;;32.67;30.67;;;;;21.86;36.69;103652.95;110798;1255;18771;-49
2022/03/19 05:42:00;;;;;;;;;35.67;33.67;;;;;21.86;36.73;103656.40;110859;1256;18938;-48
2022/03/19 05:44:27;;;;;;;;;35.33;29.00;;;;;21.88;36.63;103660.88;110764;1257;19701;-49
2022/03/19 05:46:54;;;;;;;;;37.00;31.50;;;;;21.89;36.80;103669.14;110787;1255;22265;-50
2022/03/19 05:49:22;;;;;;;;;41.00;30.67;;;;;21.89;36.66;103670.61;110779;1256;18796;-49
2022/03/19 05:51:49;;;;;;;;;31.33;29.33;;;;;21.91;36.69;103676.10;110759;1256;21247;-52
2022/03/19 05:54:16;;;;;;;;;43.67;34.33;;;;;21.93;36.71;103671.21;110779;1256;22801;-50
2022/03/19 05:56:43;;;;;;;;;36.33;34.00;;;;;21.97;36.59;103677.88;110897;1255;18868;-50
2022/03/19 05:59:10;;;;;;;;;33.00;30.67;;;;;22.01;36.59;103679.73;110807;1256;19776;-50
2022/03/19 06:01:38;;;;;;;;;34.33;31.33;;;;;22.07;36.64;103683.27;110760;1255;22360;-50
2022/03/19 06:04:05;;;;;;;;;34.00;30.00;;;;;22.08;36.52;103683.54;110749;1258;18756;-46
2022/03/19 06:06:32;;;;;;;;;36.33;33.33;;;;;22.07;36.89;103687.47;110725;1258;19504;-49
2022/03/19 06:09:00;;;;;;;;;42.00;35.00;;;;;22.05;36.99;103687.95;110897;1255;21133;-50
2022/03/19 06:11:27;;;;;;;;;35.67;32.33;;;;;22.05;37.13;103691.77;110810;1255;19194;-51
2022/03/19 06:13:54;;;;;;;;;37.33;33.00;;;;;22.07;37.06;103698.38;110829;1255;20933;-50
2022/03/19 06:16:21;;;;;;;;;37.67;33.67;;;;;22.09;36.91;103699.19;110784;1255;19031;-50
2022/03/19 06:18:50;;;;;;;;;33.67;30.33;;;;;22.10;36.96;103705.07;110883;1255;18861;-51
2022/03/19 06:21:17;;;;;;;;;38.00;33.50;;;;;22.11;37.02;103707.98;110878;1255;23469;-50
2022/03/19 06:23:45;;;;;;;;;36.33;33.33;;;;;22.14;37.00;103712.50;110895;1255;18660;-50
2022/03/19 06:26:12;;;;;;;;;37.33;34.00;;;;;22.20;37.11;103714.57;110808;1255;18870;-49
2022/03/19 06:28:39;;;;;;;;;33.50;31.50;;;;;22.27;37.18;103714.44;110762;1258;19514;-51
2022/03/19 06:31:06;;;;;;;;;39.00;34.00;;;;;22.32;37.28;103714.97;110886;1255;19105;-51
2022/03/19 06:33:33;;;;;;;;;32.33;31.33;;;;;22.29;37.52;103716.10;110754;1256;18805;-49
2022/03/19 06:38:46;;;;;;;;;37.50;32.50;;;;;22.29;37.66;103724.09;110785;1255;18725;-49
2022/03/19 06:41:13;;;;;;;;;34.50;33.00;;;;;22.27;37.81;103726.96;110741;1257;18799;-50
2022/03/19 06:43:40;;;;;;;;;38.67;36.33;;;;;22.26;37.68;103725.81;110763;1258;21305;-50
2022/03/19 06:46:08;;;;;;;;;39.67;34.33;;;;;22.27;37.62;103730.63;110751;1258;18777;-51
2022/03/19 06:48:35;;;;;;;;;39.00;33.67;;;;;22.26;37.66;103736.34;110752;1257;18853;-51
2022/03/19 06:51:02;;;;;;;;;42.00;34.67;;;;;22.27;37.57;103736.13;110822;1255;19662;-50
2022/03/19 06:53:29;;;;;;;;;36.67;33.00;;;;;22.25;37.40;103736.64;110722;1258;26947;-49
2022/03/19 06:55:57;;;;;;;;;34.67;33.33;;;;;22.22;37.66;103733.39;110742;1258;18781;-55
2022/03/19 06:58:24;;;;;;;;;36.67;35.00;;;;;22.17;37.85;103735.91;110740;1258;19934;-50
2022/03/19 07:00:52;;;;;;;;;35.67;34.33;;;;;22.16;37.71;103737.86;110725;1257;18815;-50
2022/03/19 07:03:20;;;;;;;;;38.67;34.67;;;;;22.16;37.83;103741.34;110781;1258;18853;-50
2022/03/19 07:05:47;;;;;;;;;34.00;30.67;;;;;22.16;37.79;103742.21;110861;1256;19517;-49
2022/03/19 07:08:14;;;;;;;;;36.33;33.33;;;;;22.19;37.83;103741.45;110774;1256;18736;-52
2022/03/19 07:10:41;;;;;;;;;41.00;34.00;;;;;22.24;37.86;103747.08;110728;1255;23945;-50
2022/03/19 07:13:09;;;;;;;;;34.00;30.67;;;;;22.25;37.92;103746.31;110713;1255;19735;-50
2022/03/19 07:15:36;;;;;;;;;34.00;33.00;;;;;22.23;37.77;103748.83;110857;1255;20630;-49
2022/03/19 07:18:03;;;;;;;;;33.50;30.00;;;;;22.22;37.99;103750.00;110796;1256;18669;-50
2022/03/19 07:20:31;;;;;;;;;39.50;35.00;;;;;22.22;37.90;103753.04;110810;1256;19542;-49
2022/03/19 07:22:59;;;;;;;;;36.50;33.00;;;;;22.22;37.86;103754.86;110764;1255;18811;-50
2022/03/19 07:25:26;;;;;;;;;30.67;29.00;;;;;22.23;37.72;103756.82;110752;1255;21106;-50
2022/03/19 07:27:53;;;;;;;;;33.00;30.00;;;;;22.21;37.85;103760.27;110821;1255;19529;-51
2022/03/19 07:30:20;;;;;;;;;35.33;30.33;;;;;22.20;37.71;103761.48;110926;1255;19003;-48
2022/03/19 07:32:47;;;;;;;;;33.00;29.33;;;;;22.17;37.66;103759.85;110724;1257;19003;-49
2022/03/19 07:35:15;;;;;;;;;34.67;30.00;;;;;22.17;37.79;103767.87;110811;1255;19474;-48
2022/03/19 07:37:42;;;;;;;;;28.00;26.00;;;;;22.15;38.10;103767.98;110764;1255;22377;-50
2022/03/19 07:40:09;;;;;;;;;35.67;33.00;;;;;22.10;37.68;103768.10;110793;1256;18897;-48
2022/03/19 07:42:36;;;;;;;;;39.00;33.00;;;;;22.00;37.30;103768.68;110774;1255;19546;-49
2022/03/19 07:45:04;;;;;;;;;38.00;34.67;;;;;21.96;37.00;103775.75;110900;1255;22703;-48
2022/03/19 07:47:31;;;;;;;;;35.00;33.33;;;;;21.96;36.98;103778.09;110863;1255;18910;-49
2022/03/19 07:49:58;;;;;;;;;40.50;34.00;;;;;21.99;37.06;103785.14;110712;1255;19540;-49
2022/03/19 07:52:25;;;;;;;;;36.67;30.33;;;;;22.03;36.69;103780.44;110740;1255;23479;-50
2022/03/19 07:54:54;;;;;;;;;36.00;31.00;;;;;22.04;36.98;103780.54;110833;1256;18867;-49
2022/03/19 07:57:21;;;;;;;;;37.50;31.50;;;;;22.07;36.98;103783.61;110845;1255;22676;-50
2022/03/19 07:59:49;;;;;;;;;36.00;34.00;;;;;22.08;37.35;103780.62;110780;1255;20052;-50
2022/03/19 08:02:17;;;;;;;;;35.00;30.00;;;;;22.15;37.47;103788.17;110782;1255;22810;-55
2022/03/19 08:04:44;;;;;;;;;31.67;28.67;;;;;22.20;37.71;103786.39;110840;1255;19484;-50
2022/03/19 08:07:11;;;;;;;;;35.67;31.00;;;;;22.26;37.60;103789.42;110775;1255;18833;-50
2022/03/19 08:09:38;;;;;;;;;29.00;27.00;;;;;22.28;38.09;103791.61;110887;1255;18811;-51
2022/03/19 08:12:06;;;;;;;;;30.33;30.00;;;;;22.34;38.66;103795.70;110755;1255;19920;-49
2022/03/19 08:14:33;;;;;;;;;36.00;31.33;;;;;22.33;38.56;103793.03;110893;1255;23150;-49
2022/03/19 08:17:00;;;;;;;;;33.33;31.67;;;;;22.35;38.99;103798.70;110870;1255;19102;-52
2022/03/19 08:19:28;;;;;;;;;35.00;31.33;;;;;22.40;39.51;103800.01;110880;1255;19535;-50
2022/03/19 08:21:55;;;;;;;;;29.00;26.67;;;;;22.44;40.47;103798.65;110883;1255;18732;-50
2022/03/19 08:24:25;;;;;;;;;34.00;30.67;;;;;22.40;40.34;103799.42;110888;1255;18932;-49
2022/03/19 08:26:53;;;;;;;;;34.67;30.00;;;;;22.30;39.42;103806.40;110800;1258;19572;-50
2022/03/19 08:29:23;;;;;;;;;39.00;36.67;;;;;22.22;38.23;103806.82;110899;1255;18803;-52
2022/03/19 08:31:51;;;;;;;;;48.00;39.50;;;;;22.15;38.44;103809.67;110748;1257;21895;-47
2022/03/19 08:34:18;;;;;;;;;38.33;34.67;;;;;22.17;38.57;103803.91;110902;1255;21469;-53
2022/03/19 08:36:45;;;;;;;;;40.00;34.00;;;;;22.21;38.13;103807.41;110787;1255;18707;-49
2022/03/19 08:41:58;;;;;;;;;31.50;29.00;;;;;22.30;38.38;103807.11;110912;1255;21727;-49
2022/03/19 08:44:25;;;;;;;;;33.00;32.50;;;;;22.32;38.63;103810.27;110622;1258;18839;-49
2022/03/19 08:46:53;;;;;;;;;32.00;27.67;;;;;22.34;38.56;103809.55;110746;1257;21293;-50
2022/03/19 08:49:20;;;;;;;;;37.00;32.33;;;;;22.37;39.00;103812.40;110863;1255;19659;-50
2022/03/19 08:51:47;;;;;;;;;30.33;27.67;;;;;22.38;38.85;103816.90;110816;1255;19104;-51
2022/03/19 08:54:15;;;;;;;;;33.67;31.33;;;;;22.39;38.88;103813.34;110948;1255;22730;-50
2022/03/19 08:56:42;;;;;;;;;37.33;28.67;;;;;22.41;39.05;103811.59;110719;1255;19731;-48
2022/03/19 08:59:09;;;;;;;;;38.00;31.50;;;;;22.45;39.20;103812.77;110739;1255;22833;-50
2022/03/19 09:01:36;;;;;;;;;34.50;33.00;;;;;22.47;39.61;103814.82;110640;1255;19091;-50
2022/03/19 09:04:04;;;;;;;;;33.33;26.00;;;;;22.45;39.13;103814.91;110564;1255;19681;-50
2022/03/19 09:06:31;;;;;;;;;30.00;25.67;;;;;22.45;39.25;103818.23;110716;1255;18736;-50
2022/03/19 09:08:59;;;;;;;;;29.00;26.00;;;;;22.43;39.20;103821.88;110661;1255;20892;-49
2022/03/19 09:11:27;;;;;;;;;30.67;26.00;;;;;22.44;39.15;103824.89;110491;1255;19583;-48
2022/03/19 09:13:54;;;;;;;;;30.00;25.00;;;;;22.45;38.78;103823.17;110423;1256;18993;-49
2022/03/19 09:16:21;;;;;;;;;26.00;26.00;;;;;22.47;38.88;103825.13;110455;1255;18910;-50
2022/03/19 09:18:49;;;;;;;;;26.00;22.00;;;;;22.50;39.03;103821.86;110654;1255;19521;-48
2022/03/19 09:21:17;;;;;;;;;29.00;26.00;;;;;22.51;39.20;103822.10;110758;1255;18716;-51
2022/03/19 09:23:45;;;;;;;;;24.33;23.00;;;;;22.51;39.14;103818.65;110739;1255;19133;-50
2022/03/19 09:26:12;;;;;;;;;27.50;22.50;;;;;22.55;39.22;103817.48;110632;1258;19714;-51
2022/03/19 09:28:39;;;;;;;;;26.33;25.67;;;;;22.54;39.15;103820.98;110742;1256;19010;-50
2022/03/19 09:31:07;;;;;;;;;28.00;25.50;;;;;22.56;39.09;103815.40;110846;1255;22460;-49
2022/03/19 09:33:34;;;;;;;;;27.67;24.33;;;;;22.55;39.42;103815.27;110763;1258;22015;-50
2022/03/19 09:36:01;;;;;;;;;26.67;23.00;;;;;22.58;39.18;103817.77;110693;1256;22129;-51
2022/03/19 09:38:28;;;;;;;;;48.67;40.00;;;;;22.56;39.01;103813.93;110627;1255;18801;-49
2022/03/19 09:40:56;;;;;;;;;86.00;65.00;;;;;22.55;38.92;103815.80;110579;1258;19536;-50
2022/03/19 09:43:23;;;;;;;;;102.00;80.00;;;;;22.56;38.77;103819.05;110745;1255;20597;-48
2022/03/19 09:45:50;;;;;;;;;196.00;146.50;;;;;22.53;38.31;103814.90;110606;1256;18929;-49
2022/03/19 09:48:17;;;;;;;;;200.00;150.33;;;;;22.54;38.00;103817.52;110654;1258;19606;-49
2022/03/19 09:50:45;;;;;;;;;223.25;171.75;;;;;22.53;37.56;103822.92;110751;1255;19063;-51
2022/03/19 09:53:12;;;;;;;;;195.00;150.00;;;;;22.52;36.90;103824.44;110578;1255;19185;-50
2022/03/19 09:55:40;;;;;;;;;201.50;149.75;;;;;22.51;36.21;103819.39;110504;1256;22857;-48
2022/03/19 09:58:08;;;;;;;;;159.50;117.50;;;;;22.52;35.57;103822.45;110548;1255;19470;-48
2022/03/19 10:00:36;;;;;;;;;111.00;90.00;;;;;22.49;35.24;103816.86;110708;1255;23580;-50
2022/03/19 10:03:03;;;;;;;;;80.33;60.00;;;;;22.29;32.48;103820.09;110809;1255;19489;-49
2022/03/19 10:11:01;;;;;;;;;58.33;46.67;;;;;21.04;23.49;103812.21;110810;1255;19499;-50
2022/03/19 10:13:29;;;;;;;;;62.00;48.67;;;;;20.96;22.47;103814.40;110804;1256;18829;-50
2022/03/19 10:15:56;;;;;;;;;54.33;45.33;;;;;20.87;23.64;103820.11;110795;1255;19314;-50
2022/03/19 10:18:23;;;;;;;;;49.00;43.67;;;;;21.08;23.87;103809.01;110740;1255;19597;-53
2022/03/19 10:20:50;;;;;;;;;54.67;43.67;;;;;21.35;23.86;103811.69;110850;1255;19312;-49
2022/03/19 10:23:20;;;;;;;;;53.00;44.00;;;;;21.51;23.89;103813.13;110914;1255;18879;-49
2022/03/19 10:25:47;;;;;;;;;59.00;47.00;;;;;21.57;24.00;103808.36;110899;1255;19518;-49
2022/03/19 10:28:14;;;;;;;;;44.00;40.00;;;;;21.66;24.56;103802.63;110796;1255;18698;-48
2022/03/19 10:30:42;;;;;;;;;41.00;40.00;;;;;21.80;25.32;103796.55;110853;1255;18862;-50
2022/03/19 10:33:09;;;;;;;;;46.00;39.67;;;;;21.86;25.44;103799.38;110768;1258;19382;-51
2022/03/19 10:35:37;;;;;;;;;44.00;39.00;;;;;21.92;26.08;103796.78;110786;1256;18774;-50
2022/03/19 10:38:05;;;;;;;;;43.33;37.67;;;;;22.01;26.48;103792.11;110725;1257;18998;-48
2022/03/19 10:40:33;;;;;;;;;49.00;41.33;;;;;22.10;27.11;103797.27;110633;1255;19667;-48
2022/03/19 10:43:00;;;;;;;;;48.00;41.67;;;;;22.15;27.07;103792.41;110776;1255;18721;-48
2022/03/19 10:45:28;;;;;;;;;44.67;37.67;;;;;22.18;27.77;103791.81;110774;1257;18919;-48
2022/03/19 10:47:55;;;;;;;;;46.67;40.33;;;;;22.19;28.05;103792.67;110788;1258;22151;-50
2022/03/19 10:50:22;;;;;;;;;47.67;39.00;;;;;22.21;28.35;103791.26;110924;1255;18792;-50
2022/03/19 10:52:50;;;;;;;;;42.00;37.00;;;;;22.23;28.69;103787.64;110933;1255;18869;-52
2022/03/19 10:55:17;;;;;;;;;47.00;40.00;;;;;22.23;29.14;103793.81;110920;1255;19599;-50
2022/03/19 10:57:44;;;;;;;;;43.00;39.00;;;;;22.24;29.39;103790.07;110885;1255;18775;-51
2022/03/19 11:00:11;;;;;;;;;43.67;37.00;;;;;22.24;29.61;103788.23;110923;1255;18776;-51
2022/03/19 11:02:38;;;;;;;;;36.33;30.33;;;;;22.24;29.70;103783.17;110756;1258;19838;-48
2022/03/19 11:05:06;;;;;;;;;34.00;33.00;;;;;22.25;30.17;103781.11;110811;1255;22899;-49
2022/03/19 11:07:33;;;;;;;;;32.00;29.67;;;;;22.26;30.18;103778.65;110768;1257;19015;-49
2022/03/19 11:10:00;;;;;;;;;42.33;37.33;;;;;22.25;30.37;103772.52;110873;1256;19586;-50
2022/03/19 11:12:28;;;;;;;;;41.00;35.50;;;;;22.26;30.62;103783.95;110774;1258;20354;-51
2022/03/19 11:14:55;;;;;;;;;38.00;34.00;;;;;22.25;30.72;103777.98;110796;1258;22284;-50
2022/03/19 11:17:25;;;;;;;;;32.67;29.67;;;;;22.25;30.80;103778.30;110879;1255;19560;-53
2022/03/19 11:19:53;;;;;;;;;40.33;33.67;;;;;22.26;31.04;103781.95;110897;1255;19146;-52